createdAt,value
2019-02-11T00:01:34.234Z,96.03
2019-02-11T00:06:48.859Z,95.95
2019-02-11T00:11:54.559Z,95.87
2019-02-11T00:17:04.959Z,95.90
2019-02-11T00:22:17.211Z,96.11
2019-02-11T00:27:27.649Z,96.26
2019-02-11T00:32:33.506Z,96.34
2019-02-11T00:37:43.818Z,96.37
2019-02-11T00:42:50.186Z,96.60
2019-02-11T00:47:57.392Z,96.88
2019-02-11T00:53:07.024Z,96.67
2019-02-11T00:58:14.323Z,96.60
2019-02-11T01:03:23.034Z,96.72
2019-02-11T01:08:34.567Z,96.83
2019-02-11T01:13:41.528Z,96.97
2019-02-11T01:18:51.139Z,97.12
2019-02-11T01:24:01.326Z,97.18
2019-02-11T01:29:20.007Z,96.97
2019-02-11T01:34:30.015Z,96.87
2019-02-11T01:39:38.321Z,97.08
2019-02-11T01:44:47.209Z,97.14
2019-02-11T01:49:53.200Z,97.11
2019-02-11T01:55:00.777Z,96.82
2019-02-11T02:00:10.274Z,96.63
2019-02-11T02:05:20.020Z,96.52
2019-02-11T02:10:31.415Z,96.59
2019-02-11T02:15:41.765Z,96.43
2019-02-11T02:20:50.954Z,96.49
2019-02-11T02:25:58.435Z,96.11
2019-02-11T02:31:07.201Z,95.66
2019-02-11T02:36:17.915Z,95.43
2019-02-11T02:41:26.009Z,95.28
2019-02-11T02:46:36.586Z,94.74
2019-02-11T02:51:44.383Z,93.29
2019-02-11T02:56:52.645Z,91.50
2019-02-11T03:02:03.234Z,91.43
2019-02-11T03:07:11.863Z,92.58
2019-02-11T03:12:18.349Z,92.37
2019-02-11T03:17:24.372Z,93.08
2019-02-11T03:22:33.453Z,93.63
2019-02-11T03:27:39.722Z,93.43
2019-02-11T03:32:47.797Z,93.72
2019-02-11T03:37:54.652Z,93.95
2019-02-11T03:43:02.797Z,94.45
2019-02-11T03:48:14.349Z,94.45
2019-02-11T03:53:22.218Z,94.63
2019-02-11T03:58:31.519Z,95.03
2019-02-11T04:03:40.249Z,95.55
2019-02-11T04:08:49.137Z,95.54
2019-02-11T04:13:57.471Z,95.87
2019-02-11T04:19:04.240Z,96.50
2019-02-11T04:24:12.928Z,96.55
2019-02-11T04:29:21.697Z,97.06
2019-02-11T04:34:29.147Z,97.36
2019-02-11T04:39:41.819Z,97.59
2019-02-11T04:44:49.043Z,97.74
2019-02-11T04:49:57.923Z,97.44
2019-02-11T04:55:07.184Z,97.62
2019-02-11T05:00:15.522Z,97.66
2019-02-11T05:05:24.304Z,97.85
2019-02-11T05:10:33.818Z,97.51
2019-02-11T05:15:40.308Z,97.96
2019-02-11T05:20:51.207Z,97.97
2019-02-11T05:26:00.928Z,97.57
2019-02-11T05:31:08.275Z,97.49
2019-02-11T05:36:15.345Z,97.38
2019-02-11T05:41:20.389Z,97.45
2019-02-11T05:46:30.138Z,97.74
2019-02-11T05:51:40.495Z,97.21
2019-02-11T05:56:47.840Z,97.28
2019-02-11T06:01:56.776Z,97.11
2019-02-11T06:07:06.674Z,97.26
2019-02-11T06:12:13.394Z,97.76
2019-02-11T06:17:26.755Z,97.41
2019-02-11T06:22:38.124Z,97.53
2019-02-11T06:27:44.040Z,97.49
2019-02-11T06:32:53.792Z,97.70
2019-02-11T06:38:01.966Z,97.81
2019-02-11T06:43:09.058Z,97.41
2019-02-11T06:48:19.177Z,97.10
2019-02-11T06:53:25.617Z,97.07
2019-02-11T06:58:34.683Z,97.14
2019-02-11T07:03:45.536Z,97.16
2019-02-11T07:08:56.291Z,97.47
2019-02-11T07:14:05.257Z,97.32
2019-02-11T07:19:16.036Z,97.14
2019-02-11T07:24:23.076Z,97.22
2019-02-11T07:29:31.737Z,97.55
2019-02-11T07:34:38.176Z,97.49
2019-02-11T07:39:47.775Z,97.68
2019-02-11T07:44:57.639Z,97.84
2019-02-11T07:50:07.294Z,97.96
2019-02-11T07:55:19.143Z,97.64
2019-02-11T08:00:28.284Z,97.68
2019-02-11T08:05:35.199Z,97.60
2019-02-11T08:10:42.689Z,97.69
2019-02-11T08:15:53.114Z,97.44
2019-02-11T08:21:02.101Z,97.79
2019-02-11T08:26:10.970Z,97.77
2019-02-11T08:31:19.796Z,97.51
2019-02-11T08:36:27.130Z,97.26
2019-02-11T08:41:34.621Z,97.16
2019-02-11T08:46:41.859Z,96.95
2019-02-11T08:51:49.897Z,96.61
2019-02-11T08:56:57.477Z,96.20
2019-02-11T09:02:08.389Z,96.15
2019-02-11T09:07:18.817Z,95.59
2019-02-11T09:12:28.898Z,94.00
2019-02-11T09:17:41.153Z,92.24
2019-02-11T09:22:49.604Z,91.88
2019-02-11T09:27:59.785Z,92.45
2019-02-11T09:33:08.614Z,90.38
2019-02-11T09:38:15.073Z,89.17
2019-02-11T09:43:22.384Z,88.91
2019-02-11T09:48:31.073Z,89.94
2019-02-11T09:53:43.278Z,90.75
2019-02-11T09:58:55.152Z,92.01
2019-02-11T10:04:03.178Z,93.44
2019-02-11T10:09:11.412Z,94.14
2019-02-11T10:14:20.111Z,94.25
2019-02-11T10:19:27.326Z,94.20
2019-02-11T10:24:36.525Z,94.41
2019-02-11T10:29:42.622Z,93.79
2019-02-11T10:34:51.311Z,93.75
2019-02-11T10:39:58.832Z,91.15
2019-02-11T10:45:06.009Z,88.04
2019-02-11T10:50:12.522Z,89.01
2019-02-11T10:55:20.983Z,90.03
2019-02-11T11:00:29.034Z,80.20
2019-02-11T11:05:38.077Z,80.52
2019-02-11T11:10:47.411Z,79.40
2019-02-11T11:15:53.519Z,82.44
2019-02-11T11:21:03.744Z,73.82
2019-02-11T11:26:15.525Z,64.48
2019-02-11T11:31:27.606Z,59.88
2019-02-11T11:36:33.565Z,58.70
2019-02-11T11:41:41.589Z,57.66
2019-02-11T11:46:49.932Z,56.54
2019-02-11T11:51:59.629Z,63.03
2019-02-11T11:57:10.241Z,75.83
2019-02-11T12:02:18.152Z,79.12
2019-02-11T12:07:24.079Z,79.75
2019-02-11T12:12:32.170Z,80.67
2019-02-11T12:17:41.644Z,82.13
2019-02-11T12:22:53.140Z,78.11
2019-02-11T12:27:59.800Z,67.17
2019-02-11T12:33:05.749Z,65.81
2019-02-11T12:38:15.392Z,60.00
2019-02-11T12:43:24.380Z,59.76
2019-02-11T12:48:34.052Z,55.63
2019-02-11T12:53:42.877Z,46.45
2019-02-11T12:58:51.563Z,56.53
2019-02-11T13:04:02.328Z,55.55
2019-02-11T13:09:11.560Z,53.97
2019-02-11T13:14:18.430Z,45.04
2019-02-11T13:19:25.793Z,46.08
2019-02-11T13:24:33.995Z,43.23
2019-02-11T13:29:42.662Z,41.68
2019-02-11T13:34:51.697Z,49.56
2019-02-11T13:39:59.808Z,50.97
2019-02-11T13:45:09.793Z,46.21
2019-02-11T13:50:20.609Z,44.32
2019-02-11T13:55:30.390Z,37.69
2019-02-11T14:00:36.171Z,40.97
2019-02-11T14:05:43.447Z,40.57
2019-02-11T14:10:51.872Z,40.57
2019-02-11T14:15:57.801Z,36.04
2019-02-11T14:21:08.005Z,36.60
2019-02-11T14:26:19.270Z,37.29
2019-02-11T14:31:30.675Z,40.58
2019-02-11T14:36:35.242Z,46.04
2019-02-11T14:41:42.483Z,52.37
2019-02-11T14:46:48.271Z,53.02
2019-02-11T14:51:54.689Z,54.57
2019-02-11T14:57:01.277Z,56.29
2019-02-11T15:02:10.465Z,58.01
2019-02-11T15:07:18.038Z,58.92
2019-02-11T15:12:26.080Z,58.07
2019-02-11T15:17:33.869Z,58.70
2019-02-11T15:22:42.793Z,58.90
2019-02-11T15:27:48.729Z,60.61
2019-02-11T15:32:56.721Z,60.78
2019-02-11T15:38:09.894Z,61.42
2019-02-11T15:43:19.584Z,62.15
2019-02-11T15:48:26.924Z,64.43
2019-02-11T15:53:32.888Z,65.76
2019-02-11T15:58:41.635Z,65.32
2019-02-11T16:03:51.189Z,65.88
2019-02-11T16:09:04.620Z,66.45
2019-02-11T16:14:10.116Z,66.67
2019-02-11T16:19:21.139Z,67.91
2019-02-11T16:24:31.811Z,67.58
2019-02-11T16:29:42.468Z,66.98
2019-02-11T16:34:49.825Z,68.54
2019-02-11T16:39:59.424Z,68.65
2019-02-11T16:45:09.118Z,67.36
2019-02-11T16:50:17.031Z,68.80
2019-02-11T16:55:23.508Z,69.39
2019-02-11T17:00:31.410Z,69.49
2019-02-11T17:05:41.666Z,70.63
2019-02-11T17:10:48.534Z,70.57
2019-02-11T17:15:58.212Z,70.50
2019-02-11T17:21:04.739Z,71.97
2019-02-11T17:26:12.647Z,71.99
2019-02-11T17:31:19.337Z,71.69
2019-02-11T17:36:26.786Z,71.91
2019-02-11T17:41:33.247Z,72.49
2019-02-11T17:46:39.730Z,73.13
2019-02-11T17:51:45.430Z,72.88
2019-02-11T17:56:51.201Z,73.09
2019-02-11T18:01:57.703Z,73.58
2019-02-11T18:07:04.068Z,73.72
2019-02-11T18:12:13.672Z,74.05
2019-02-11T18:17:21.663Z,74.53
2019-02-11T18:22:34.434Z,74.77
2019-02-11T18:27:42.204Z,75.05
2019-02-11T18:32:47.379Z,75.50
2019-02-11T18:37:55.554Z,75.70
2019-02-11T18:43:04.508Z,76.42
2019-02-11T18:48:12.693Z,76.31
2019-02-11T18:53:22.374Z,77.00
2019-02-11T18:58:30.592Z,76.88
2019-02-11T19:03:37.941Z,77.50
2019-02-11T19:08:46.673Z,78.16
2019-02-11T19:13:55.928Z,78.07
2019-02-11T19:19:03.337Z,78.19
2019-02-11T19:24:09.305Z,79.92
2019-02-11T19:29:18.885Z,79.61
2019-02-11T19:34:27.222Z,79.72
2019-02-11T19:39:33.055Z,79.70
2019-02-11T19:44:42.491Z,80.12
2019-02-11T19:49:52.084Z,80.30
2019-02-11T19:54:56.961Z,80.11
2019-02-11T20:00:06.081Z,80.61
2019-02-11T20:05:14.620Z,81.12
2019-02-11T20:10:22.180Z,81.35
2019-02-11T20:15:31.433Z,81.77
2019-02-11T20:21:39.670Z,82.26
2019-02-11T20:26:49.346Z,82.67
2019-02-11T20:31:59.361Z,82.47
2019-02-11T20:37:06.741Z,83.29
2019-02-11T20:42:16.265Z,83.65
2019-02-11T20:47:27.012Z,83.66
2019-02-11T20:52:35.959Z,84.37
2019-02-11T20:57:47.114Z,84.38
2019-02-11T21:02:53.309Z,84.96
2019-02-11T21:08:02.018Z,84.48
2019-02-11T21:13:10.177Z,84.14
2019-02-11T21:18:20.612Z,84.36
2019-02-11T21:23:30.399Z,84.19
2019-02-11T21:28:42.212Z,84.47
2019-02-11T21:33:49.488Z,84.55
2019-02-11T21:38:55.765Z,84.72
2019-02-11T21:44:03.273Z,84.99
2019-02-11T21:49:10.731Z,85.16
2019-02-11T21:54:18.668Z,85.33
2019-02-11T21:59:26.709Z,85.56
2019-02-11T22:04:35.623Z,85.66
2019-02-11T22:09:45.250Z,85.96
2019-02-11T22:14:52.997Z,85.97
2019-02-11T22:20:01.375Z,86.37
2019-02-11T22:25:07.738Z,86.88
2019-02-11T22:30:19.552Z,86.95
2019-02-11T22:35:30.782Z,86.81
2019-02-11T22:40:40.483Z,86.82
2019-02-11T22:45:51.660Z,87.08
2019-02-11T22:51:02.272Z,87.11
2019-02-11T22:56:14.426Z,87.18
2019-02-11T23:01:25.985Z,87.20
2019-02-11T23:06:35.743Z,87.47
2019-02-11T23:11:45.741Z,88.42
2019-02-11T23:16:55.322Z,89.39
2019-02-11T23:22:04.945Z,90.38
2019-02-11T23:27:14.983Z,90.88
2019-02-11T23:32:26.392Z,90.57
2019-02-11T23:37:35.212Z,90.27
2019-02-11T23:42:51.073Z,89.89
2019-02-11T23:48:03.716Z,89.61
2019-02-11T23:53:12.167Z,90.58
2019-02-11T23:58:18.144Z,91.96
